Stratmoor Hills, Colorado
Current Conditions -  °F | °C
As of 7:56 PM on Tuesday 21 Oct 2014 (Local Time) from KCWN Reporting Station
Few Clouds Few Clouds  
Wind Chill: 60°   Ceiling: Unl
Heat Index: 60°   Visibility: 10mi
Dew Point: 32°   Wind: 6mph
Humidity: 35%   Direction: NA
Pressure: 30.01"   Gusts: NA
Location:  38.7684°N, 104.872°W
Report Text: KCWN 220156Z AUTO VRB05KT 10SM FEW100 16/00 A3001 RMK AO2 SLP096 T01570001
Loading
Personal Weather Stations






























Interactive Weather Map
Tropical Storm Tracking
New forecast layout! Learn more

10-Day Weather Forecast

Advertisements
Track Severe Weather on mobile